Time;durP1;ratioP1;P1;durP2;ratioP2;P2;SDS_P1;SDS_P2;PMS_P1;PMS_P2;Temp;Humidity;BMP_temperature;BMP_pressure;BME280_temperature;BME280_humidity;BME280_pressure;Samples;Min_cycle;Max_cycle;Signal;HPM_P1;HPM_P2
2022/03/05 00:01:40;;;;;;;33.03;17.45;;;;;;;3.56;71.91;100960.84;4996110;28;20041;-75
2022/03/05 00:04:05;;;;;;;31.48;17.85;;;;;;;3.56;71.51;100955.19;4979843;28;20068;-76
2022/03/05 00:06:32;;;;;;;34.05;17.88;;;;;;;3.53;71.66;100959.66;4979801;28;20053;-76
2022/03/05 00:08:58;;;;;;;32.85;18.00;;;;;;;3.54;71.29;100966.91;4976182;28;20050;-75
2022/03/05 00:11:24;;;;;;;34.60;17.30;;;;;;;3.52;72.01;100958.06;4994161;28;20038;-76
2022/03/05 00:13:51;;;;;;;31.15;19.35;;;;;;;3.57;71.38;100960.44;4993871;28;20026;-77
2022/03/05 00:16:16;;;;;;;30.55;17.70;;;;;;;3.55;71.75;100962.06;4991145;28;20035;-77
2022/03/05 00:18:44;;;;;;;35.75;18.35;;;;;;;3.51;71.37;100964.91;4975062;28;20069;-76
2022/03/05 00:21:10;;;;;;;31.73;17.98;;;;;;;3.50;71.54;100959.69;4991122;28;20072;-76
2022/03/05 00:23:36;;;;;;;31.70;17.55;;;;;;;3.51;71.77;100964.09;4991086;28;20058;-77
2022/03/05 00:26:01;;;;;;;32.65;18.27;;;;;;;3.50;71.77;100960.50;4992739;28;20046;-76
2022/03/05 00:28:35;;;;;;;35.83;18.52;;;;;;;3.45;71.73;100953.28;4992759;28;20034;-77
2022/03/05 00:31:01;;;;;;;35.25;18.60;;;;;;;3.46;72.08;100954.06;4993411;28;20160;-76
2022/03/05 00:33:28;;;;;;;35.00;20.00;;;;;;;3.45;71.95;100955.31;4994167;28;20021;-76
2022/03/05 00:35:53;;;;;;;36.75;19.05;;;;;;;3.45;71.84;100952.50;4992962;28;20050;-76
2022/03/05 00:38:21;;;;;;;36.35;18.33;;;;;;;3.41;72.24;100957.34;4993585;28;20065;-76
2022/03/05 00:40:47;;;;;;;37.15;18.52;;;;;;;3.40;72.06;100948.09;4992558;28;20060;-76
2022/03/05 00:43:14;;;;;;;40.50;20.48;;;;;;;3.42;72.29;100956.13;4993138;28;20033;-76
2022/03/05 00:45:41;;;;;;;35.65;19.63;;;;;;;3.43;72.08;100960.56;4993761;28;20026;-76
2022/03/05 00:48:07;;;;;;;32.22;18.25;;;;;;;3.38;72.65;100950.53;4992416;28;20026;-77
2022/03/05 00:50:34;;;;;;;41.25;19.48;;;;;;;3.41;72.29;100954.53;4993916;28;20483;-76
2022/03/05 00:53:00;;;;;;;38.95;19.35;;;;;;;3.35;72.12;100950.56;4975998;28;20041;-76
2022/03/05 00:55:27;;;;;;;37.80;20.77;;;;;;;3.36;72.51;100947.31;4992293;28;20464;-76
2022/03/05 00:57:54;;;;;;;38.50;19.55;;;;;;;3.36;72.15;100943.69;5008728;28;20045;-76
2022/03/05 01:00:19;;;;;;;37.35;19.98;;;;;;;3.35;72.30;100948.56;4993802;28;20046;-76
2022/03/05 01:02:45;;;;;;;39.65;21.10;;;;;;;3.36;72.13;100944.50;4977910;28;20464;-75
2022/03/05 01:05:10;;;;;;;42.65;19.60;;;;;;;3.34;72.09;100940.50;4996039;28;20522;-75
2022/03/05 01:07:36;;;;;;;37.80;20.85;;;;;;;3.31;72.07;100941.31;4996371;28;20030;-76
2022/03/05 01:10:03;;;;;;;34.97;18.67;;;;;;;3.36;72.25;100946.50;4995182;28;20086;-76
2022/03/05 01:12:28;;;;;;;36.38;21.10;;;;;;;3.31;71.95;100942.13;4996015;28;20031;-76
2022/03/05 01:14:53;;;;;;;38.95;20.40;;;;;;;3.31;72.07;100944.13;4997370;28;20031;-76
2022/03/05 01:17:18;;;;;;;44.05;22.08;;;;;;;3.31;72.22;100949.78;4997397;28;20037;-76
2022/03/05 01:19:45;;;;;;;37.60;20.90;;;;;;;3.32;71.85;100946.56;4995875;28;20038;-76
2022/03/05 01:22:10;;;;;;;37.50;20.55;;;;;;;3.29;71.75;100941.75;4995684;28;20030;-76
2022/03/05 01:24:37;;;;;;;34.85;19.65;;;;;;;3.26;71.87;100944.59;4994591;28;20042;-76
2022/03/05 01:27:03;;;;;;;39.47;20.05;;;;;;;3.25;72.06;100946.63;4996969;28;20101;-76
2022/03/05 01:29:29;;;;;;;36.35;20.70;;;;;;;3.19;72.23;100942.63;4995841;28;20124;-76
2022/03/05 01:31:56;;;;;;;40.60;21.95;;;;;;;3.23;71.90;100936.97;4996974;28;20380;-76
2022/03/05 01:34:22;;;;;;;35.53;19.45;;;;;;;3.26;72.28;100944.59;4979361;28;20377;-76
2022/03/05 01:36:47;;;;;;;41.45;21.23;;;;;;;3.23;71.73;100948.22;4996651;28;20030;-76
2022/03/05 01:39:14;;;;;;;39.63;21.65;;;;;;;3.19;71.97;100950.28;4995507;28;20022;-76
2022/03/05 01:41:41;;;;;;;37.88;20.48;;;;;;;3.18;72.13;100946.66;4995544;28;20023;-76
2022/03/05 01:44:07;;;;;;;42.42;21.60;;;;;;;3.19;72.20;100958.72;4994087;28;20391;-76
2022/03/05 01:46:37;;;;;;;39.15;21.67;;;;;;;3.19;72.14;100951.09;5011673;28;20030;-76
2022/03/05 01:49:09;;;;;;;39.30;21.70;;;;;;;3.18;72.17;100948.66;4996547;28;20460;-76
2022/03/05 01:51:35;;;;;;;46.13;22.65;;;;;;;3.13;72.22;100949.91;4995358;28;20467;-76
2022/03/05 01:54:01;;;;;;;45.15;21.88;;;;;;;3.12;72.28;100953.13;4996641;28;20018;-76
2022/03/05 01:56:28;;;;;;;42.97;21.42;;;;;;;3.08;72.24;100943.91;5011561;28;20022;-77
2022/03/05 01:58:54;;;;;;;37.17;22.08;;;;;;;3.08;72.36;100949.53;4978977;28;20026;-75
2022/03/05 02:01:21;;;;;;;38.72;20.85;;;;;;;3.08;72.30;100953.16;4979020;28;20085;-77
2022/03/05 02:03:46;;;;;;;46.80;21.98;;;;;;;3.08;72.19;100941.09;4994905;28;20042;-76
2022/03/05 02:06:11;;;;;;;41.90;22.40;;;;;;;3.07;72.13;100934.66;5011350;28;20022;-76
2022/03/05 02:08:38;;;;;;;43.33;22.35;;;;;;;3.05;72.20;100931.50;4994732;28;20064;-77
2022/03/05 02:11:05;;;;;;;52.30;21.90;;;;;;;3.04;72.19;100935.50;4978742;28;20475;-76
2022/03/05 02:13:30;;;;;;;38.67;21.90;;;;;;;2.99;72.51;100939.56;4992964;28;20069;-76
2022/03/05 02:15:56;;;;;;;40.45;22.45;;;;;;;2.99;72.28;100927.50;4994883;28;20070;-77
2022/03/05 02:18:23;;;;;;;37.03;21.83;;;;;;;2.96;72.53;100933.97;4994557;28;20031;-77
2022/03/05 02:20:51;;;;;;;45.35;21.95;;;;;;;2.95;72.50;100930.34;5010931;28;20030;-76
2022/03/05 02:23:17;;;;;;;40.83;21.15;;;;;;;2.94;72.39;100939.19;4978705;28;20030;-77
2022/03/05 02:25:59;;;;;;;41.60;22.23;;;;;;;2.93;72.67;100934.78;5011086;28;20037;-77
2022/03/05 02:28:25;;;;;;;;;;;;;;;2.87;72.89;100933.59;4996602;28;20019;-76
2022/03/05 02:31:06;;;;;;;40.85;22.20;;;;;;;2.86;72.90;100943.25;4995992;28;19913;-76
2022/03/05 02:33:33;;;;;;;;;;;;;;;2.90;72.38;100938.41;4996391;28;20160;-76
2022/03/05 02:36:00;;;;;;;39.40;22.08;;;;;;;2.86;72.58;100946.84;4994361;28;19914;-77
2022/03/05 02:38:27;;;;;;;39.85;21.48;;;;;;;2.87;72.33;100940.03;4978111;28;20034;-77
2022/03/05 02:40:55;;;;;;;42.25;22.80;;;;;;;2.82;72.81;100934.03;4994257;28;20031;-76
2022/03/05 02:43:26;;;;;;;40.65;21.95;;;;;;;2.81;72.73;100938.84;4994155;28;20061;-76
2022/03/05 02:45:53;;;;;;;;;;;;;;;2.79;72.90;100938.47;4994874;28;20030;-77
2022/03/05 02:48:19;;;;;;;39.92;22.35;;;;;;;2.77;72.99;100946.50;4994235;28;19918;-76
2022/03/05 02:50:46;;;;;;;39.72;21.00;;;;;;;2.80;72.97;100953.34;4993055;28;20509;-76
2022/03/05 02:53:13;;;;;;;44.10;23.08;;;;;;;2.76;72.81;100950.56;4994132;28;20030;-76
2022/03/05 02:55:40;;;;;;;39.30;22.00;;;;;;;2.78;72.90;100952.94;5010383;28;20034;-76
2022/03/05 02:58:07;;;;;;;39.08;23.27;;;;;;;2.76;72.71;100938.50;4977547;28;20089;-76
2022/03/05 03:00:32;;;;;;;41.50;23.33;;;;;;;2.70;73.00;100943.75;4995534;28;20018;-76
2022/03/05 03:02:58;;;;;;;48.95;26.85;;;;;;;2.69;72.97;100949.78;4995480;28;20033;-76
2022/03/05 03:05:25;;;;;;;39.47;24.25;;;;;;;2.63;73.57;100940.16;4994038;28;20030;-77
2022/03/05 03:07:51;;;;;;;47.90;26.38;;;;;;;2.61;73.83;100946.97;4976658;28;20044;-76
2022/03/05 03:10:17;;;;;;;42.50;23.52;;;;;;;2.58;73.57;100945.00;4993644;28;20054;-76
2022/03/05 03:12:44;;;;;;;47.47;23.55;;;;;;;2.52;73.74;100941.00;4993386;28;20038;-76
2022/03/05 03:15:25;;;;;;;46.65;23.92;;;;;;;2.47;73.96;100940.63;4995189;28;20026;-76
2022/03/05 03:17:51;;;;;;;;;;;;;;;2.42;74.52;100935.44;5015149;28;20476;-76
2022/03/05 03:20:21;;;;;;;40.90;23.38;;;;;;;2.40;74.37;100937.88;5011732;28;19917;-76
2022/03/05 03:22:47;;;;;;;45.72;24.55;;;;;;;2.39;74.40;100950.31;4997311;28;20029;-76
2022/03/05 03:25:14;;;;;;;43.03;23.58;;;;;;;2.39;74.35;100945.50;4995682;28;20034;-76
2022/03/05 03:27:39;;;;;;;45.10;24.05;;;;;;;2.38;74.08;100952.31;5012780;28;20491;-76
2022/03/05 03:30:22;;;;;;;45.85;23.48;;;;;;;2.37;74.70;100950.69;5014273;28;20029;-76
2022/03/05 03:32:48;;;;;;;41.30;22.15;;;;;;;2.34;74.40;100945.09;5014462;28;20029;-76
2022/03/05 03:35:15;;;;;;;41.08;21.88;;;;;;;2.38;74.27;100952.31;4996473;28;20383;-77
2022/03/05 03:37:55;;;;;;;45.15;22.98;;;;;;;2.37;74.42;100953.50;4996574;28;20087;-77
2022/03/05 03:40:21;;;;;;;39.55;22.00;;;;;;;2.38;74.28;100949.50;5012835;28;20053;-76
2022/03/05 03:42:49;;;;;;;39.10;21.85;;;;;;;2.37;74.02;100956.31;5013980;28;20108;-76
2022/03/05 03:45:17;;;;;;;43.65;23.48;;;;;;;2.34;74.42;100948.72;5012685;28;20040;-76
2022/03/05 03:47:45;;;;;;;42.30;22.88;;;;;;;2.32;74.81;100950.34;5012702;28;20029;-76
2022/03/05 03:50:20;;;;;;;43.25;22.30;;;;;;;2.30;74.46;100950.75;5012802;28;20070;-76
2022/03/05 03:52:47;;;;;;;41.45;22.25;;;;;;;2.31;74.36;100945.94;5013098;28;20032;-76
2022/03/05 03:55:16;;;;;;;42.10;22.50;;;;;;;2.30;74.91;100950.75;4996219;28;20026;-77
2022/03/05 03:57:41;;;;;;;46.05;22.35;;;;;;;2.31;74.72;100945.94;5012768;28;20033;-76
2022/03/05 04:00:10;;;;;;;41.90;22.35;;;;;;;2.33;74.67;100958.34;5012496;28;20041;-75
2022/03/05 04:02:37;;;;;;;39.75;23.10;;;;;;;2.30;74.76;100950.75;5013860;28;20132;-76
2022/03/05 04:05:04;;;;;;;44.60;22.88;;;;;;;2.34;74.58;100953.53;4995965;28;20434;-76
2022/03/05 04:10:13;;;;;;;39.25;22.13;;;;;;;2.35;74.60;100953.13;5012192;28;20510;-76
2022/03/05 04:12:43;;;;;;;42.75;22.75;;;;;;;2.35;74.61;100958.75;4994824;28;20029;-76
2022/03/05 04:15:15;;;;;;;39.47;22.70;;;;;;;2.32;74.22;100956.75;5011032;28;20061;-76
2022/03/05 04:17:40;;;;;;;44.28;22.63;;;;;;;2.33;74.63;100954.75;5012603;28;20036;-76
2022/03/05 04:20:09;;;;;;;47.72;22.23;;;;;;;2.31;74.46;100954.38;5012743;28;20030;-76
2022/03/05 04:22:36;;;;;;;40.83;22.20;;;;;;;2.32;74.54;100955.97;5013049;28;20022;-76
2022/03/05 04:25:03;;;;;;;44.88;22.38;;;;;;;2.30;74.73;100962.00;4994806;28;20030;-76
2022/03/05 04:27:30;;;;;;;39.60;22.45;;;;;;;2.30;74.22;100959.19;4995477;28;20026;-76
2022/03/05 04:29:56;;;;;;;37.92;21.90;;;;;;;2.26;74.55;100952.78;4995651;28;20040;-76
2022/03/05 04:32:23;;;;;;;44.17;22.58;;;;;;;2.28;74.56;100958.78;5012044;28;20459;-76
2022/03/05 04:34:49;;;;;;;39.22;23.17;;;;;;;2.27;74.27;100954.34;5013647;28;20026;-76
2022/03/05 04:37:15;;;;;;;41.50;22.15;;;;;;;2.29;74.52;100957.56;5012452;28;20032;-76
2022/03/05 04:39:40;;;;;;;44.58;23.40;;;;;;;2.29;74.52;100957.56;4995637;28;20458;-76
2022/03/05 04:42:08;;;;;;;43.47;23.50;;;;;;;2.28;74.16;100955.97;5012071;28;20026;-77
2022/03/05 04:44:33;;;;;;;49.33;23.83;;;;;;;2.26;74.56;100952.78;5012277;28;20088;-76
2022/03/05 04:47:00;;;;;;;44.10;23.25;;;;;;;2.28;74.21;100958.78;5013434;28;20041;-76
2022/03/05 04:49:25;;;;;;;48.33;23.63;;;;;;;2.23;74.06;100956.38;4995555;28;20543;-76
2022/03/05 04:51:53;;;;;;;41.80;22.10;;;;;;;2.22;74.63;100963.19;5011829;28;20076;-76
2022/03/05 04:54:18;;;;;;;38.20;21.65;;;;;;;2.20;74.36;100960.00;5013178;28;20034;-76
2022/03/05 04:56:45;;;;;;;39.15;21.33;;;;;;;2.22;74.73;100968.03;5013259;28;20559;-77
2022/03/05 04:59:10;;;;;;;43.90;22.27;;;;;;;2.20;74.13;100976.06;5012379;28;20045;-76
2022/03/05 05:01:36;;;;;;;39.00;21.05;;;;;;;2.18;74.78;100973.66;4995603;28;20025;-76
2022/03/05 05:04:03;;;;;;;36.40;21.30;;;;;;;2.15;74.84;100963.25;5013027;28;20026;-76
2022/03/05 05:06:28;;;;;;;42.08;21.48;;;;;;;2.16;74.87;100965.66;5013004;28;20029;-76
2022/03/05 05:08:55;;;;;;;38.97;20.58;;;;;;;2.14;74.29;100959.63;5011660;28;20108;-74
2022/03/05 05:11:21;;;;;;;36.78;20.00;;;;;;;2.13;74.92;100968.44;5011931;28;20092;-76
2022/03/05 05:13:47;;;;;;;39.05;20.55;;;;;;;2.13;74.46;100963.63;5011877;28;20029;-76
2022/03/05 05:16:12;;;;;;;35.45;20.33;;;;;;;2.11;74.30;100970.88;5011825;28;20034;-76
2022/03/05 05:18:38;;;;;;;38.45;20.30;;;;;;;2.05;75.13;100964.88;5013111;28;20030;-76
2022/03/05 05:21:04;;;;;;;35.35;20.75;;;;;;;2.02;74.46;100962.84;5013119;28;20038;-76
2022/03/05 05:23:29;;;;;;;38.95;20.60;;;;;;;1.97;74.88;100963.28;5013061;28;20056;-76
2022/03/05 05:25:55;;;;;;;42.53;21.75;;;;;;;1.93;74.88;100962.47;5012744;28;20034;-75
2022/03/05 05:28:21;;;;;;;41.90;21.83;;;;;;;1.94;74.93;100964.09;5011669;28;20040;-77
2022/03/05 05:31:01;;;;;;;44.95;21.40;;;;;;;1.90;75.11;100965.28;5011619;28;20041;-77
2022/03/05 05:33:28;;;;;;;45.03;20.92;;;;;;;1.83;75.35;100974.53;5012671;28;20124;-77
2022/03/05 05:35:54;;;;;;;39.58;19.98;;;;;;;1.75;74.89;100964.50;4995201;28;20076;-77
2022/03/05 05:38:20;;;;;;;40.55;21.13;;;;;;;1.69;75.41;100971.72;5011497;28;20122;-77
2022/03/05 05:40:46;;;;;;;37.83;19.52;;;;;;;1.65;75.28;100973.75;5012949;28;20026;-77
2022/03/05 05:43:12;;;;;;;36.95;19.55;;;;;;;1.53;75.87;100951.72;5011287;28;20453;-77
2022/03/05 05:45:41;;;;;;;42.00;20.05;;;;;;;1.64;75.49;100972.13;5012718;28;20507;-77
2022/03/05 05:48:07;;;;;;;34.60;18.23;;;;;;;1.69;75.61;100980.97;5012483;28;20049;-77
2022/03/05 05:50:34;;;;;;;35.40;20.00;;;;;;;1.70;74.94;100971.34;5015481;28;20022;-77
2022/03/05 05:53:01;;;;;;;37.38;18.25;;;;;;;1.67;75.47;100972.16;5014681;28;20026;-78
2022/03/05 05:55:27;;;;;;;35.40;18.92;;;;;;;1.65;75.10;100977.34;5015020;28;20030;-74
2022/03/05 05:57:54;;;;;;;36.17;18.73;;;;;;;1.66;75.29;100976.16;5016239;28;20045;-75
2022/03/05 06:00:19;;;;;;;45.13;19.80;;;;;;;1.69;75.30;100982.97;5011999;28;20463;-74
2022/03/05 06:02:46;;;;;;;40.33;20.92;;;;;;;1.74;75.58;100974.94;4994567;28;20114;-74
2022/03/05 06:05:11;;;;;;;34.85;18.02;;;;;;;1.88;75.15;100990.97;4981456;28;20034;-74
2022/03/05 06:07:37;;;;;;;30.83;17.17;;;;;;;2.38;74.70;100972.00;5014623;28;20087;-74
2022/03/05 06:10:03;;;;;;;30.60;15.82;;;;;;;3.22;72.44;100989.66;5031867;28;20053;-74
2022/03/05 06:12:29;;;;;;;28.50;16.10;;;;;;;3.33;70.79;100998.03;5018163;28;20041;-72
2022/03/05 06:15:03;;;;;;;29.55;16.15;;;;;;;3.17;70.34;100989.28;5027220;28;20125;-72
2022/03/05 06:17:32;;;;;;;28.58;17.10;;;;;;;2.97;70.66;100984.16;5015805;28;20083;-75
2022/03/05 06:19:57;;;;;;;26.58;14.75;;;;;;;2.75;70.79;100984.69;4983915;28;20507;-74
2022/03/05 06:22:23;;;;;;;30.98;16.00;;;;;;;2.53;71.19;100986.78;5017857;28;20060;-74
2022/03/05 06:24:51;;;;;;;25.45;14.93;;;;;;;2.40;71.48;100986.44;5035481;28;20029;-73
2022/03/05 06:27:16;;;;;;;25.63;13.80;;;;;;;2.35;72.01;100992.50;5000916;28;20037;-73
2022/03/05 06:29:42;;;;;;;23.63;14.98;;;;;;;2.39;71.76;100990.47;4999107;28;20033;-74
2022/03/05 06:32:08;;;;;;;26.25;14.88;;;;;;;2.41;71.80;101004.13;4995774;28;20025;-75
2022/03/05 06:34:38;;;;;;;30.67;15.40;;;;;;;2.38;72.07;101000.09;5011520;28;20042;-74
2022/03/05 06:37:04;;;;;;;22.73;13.60;;;;;;;2.40;71.85;100999.69;5012948;28;20044;-74
2022/03/05 06:39:29;;;;;;;23.67;14.25;;;;;;;2.47;71.74;101006.09;5014157;28;20525;-74
2022/03/05 06:41:57;;;;;;;25.48;14.68;;;;;;;2.66;71.67;101004.84;5015443;28;20428;-74
2022/03/05 06:44:23;;;;;;;25.00;15.13;;;;;;;2.98;70.85;101010.28;5014534;28;20029;-75
2022/03/05 06:46:50;;;;;;;27.85;14.73;;;;;;;3.20;70.39;101011.00;5013575;28;20045;-73
2022/03/05 06:49:15;;;;;;;27.33;13.23;;;;;;;3.33;69.18;101010.09;5009794;28;20030;-73
2022/03/05 06:51:41;;;;;;;22.55;13.82;;;;;;;3.45;69.17;101014.44;4997261;28;20092;-74
2022/03/05 06:54:08;;;;;;;50.25;17.92;;;;;;;3.52;69.19;101011.56;5013126;28;20038;-73
2022/03/05 06:56:33;;;;;;;29.10;15.55;;;;;;;3.59;67.83;100991.00;5014715;28;20064;-73
2022/03/05 06:58:59;;;;;;;22.90;13.20;;;;;;;3.80;67.63;101005.69;4997293;28;20450;-74
2022/03/05 07:01:27;;;;;;;25.48;13.85;;;;;;;3.88;67.26;101007.25;4997417;28;20030;-72
2022/03/05 07:03:53;;;;;;;27.17;13.57;;;;;;;3.86;66.41;101008.88;4987699;28;20128;-75
2022/03/05 07:06:19;;;;;;;24.95;13.02;;;;;;;3.79;66.67;101006.13;4998041;28;20034;-71
2022/03/05 07:08:44;;;;;;;30.00;13.73;;;;;;;3.71;66.72;101015.84;5001875;28;20125;-74
2022/03/05 07:11:14;;;;;;;25.10;13.20;;;;;;;3.71;66.13;101025.09;4981854;28;20529;-70
2022/03/05 07:13:41;;;;;;;27.45;12.98;;;;;;;4.26;67.14;101025.00;4996609;28;20118;-72
2022/03/05 07:16:06;;;;;;;22.48;12.32;;;;;;;6.29;62.57;101015.25;4993585;28;20061;-74
2022/03/05 07:18:32;;;;;;;28.25;11.90;;;;;;;9.07;54.31;101005.28;4997636;28;20060;-73
2022/03/05 07:20:58;;;;;;;26.63;12.43;;;;;;;12.01;49.05;100991.84;5003276;28;20041;-73
2022/03/05 07:23:24;;;;;;;18.83;10.75;;;;;;;15.54;41.08;100984.16;4993183;28;20038;-72
2022/03/05 07:25:50;;;;;;;21.42;12.68;;;;;;;17.94;36.28;100985.69;4979204;28;20120;-75
2022/03/05 07:28:16;;;;;;;20.83;11.60;;;;;;;19.85;32.33;100982.84;4977149;28;20113;-73
2022/03/05 07:30:42;;;;;;;21.83;11.10;;;;;;;21.21;30.08;100979.72;4990937;28;20035;-72
2022/03/05 07:33:09;;;;;;;16.33;11.00;;;;;;;21.45;28.81;100986.41;4993534;28;20185;-71
2022/03/05 07:35:34;;;;;;;22.63;11.90;;;;;;;21.47;27.57;100988.72;4993293;28;20113;-73
2022/03/05 07:38:00;;;;;;;18.08;11.77;;;;;;;22.24;26.68;100992.28;4993516;28;20041;-73
2022/03/05 07:40:26;;;;;;;17.40;11.30;;;;;;;24.05;24.58;100989.38;4994312;28;20057;-70
2022/03/05 07:42:53;;;;;;;24.58;12.35;;;;;;;25.36;22.74;100993.53;4996601;28;20026;-72
2022/03/05 07:45:19;;;;;;;25.95;11.90;;;;;;;26.46;21.96;100997.88;4980230;28;20027;-74
2022/03/05 07:47:44;;;;;;;26.23;12.48;;;;;;;27.33;20.63;101006.66;5003316;28;20026;-73
2022/03/05 07:50:10;;;;;;;20.40;11.45;;;;;;;27.88;19.72;101012.84;4993171;28;20033;-72
2022/03/05 07:52:36;;;;;;;22.00;10.80;;;;;;;26.09;20.22;101010.03;4993003;28;20026;-73
2022/03/05 07:55:17;;;;;;;32.05;13.48;;;;;;;22.06;22.32;101016.97;4992897;28;20018;-72
2022/03/05 07:57:43;;;;;;;26.60;12.57;;;;;;;19.82;26.32;101028.06;4994196;28;20023;-71
2022/03/05 08:00:08;;;;;;;20.27;12.88;;;;;;;17.18;29.50;101031.34;4994504;28;20356;-74
2022/03/05 08:02:34;;;;;;;24.00;13.27;;;;;;;15.23;32.32;101041.25;4995273;28;20072;-74
2022/03/05 08:04:59;;;;;;;22.50;13.75;;;;;;;13.69;34.72;101041.78;4975528;28;20027;-75
2022/03/05 08:07:27;;;;;;;21.85;12.98;;;;;;;14.21;34.07;101040.41;5003885;28;20018;-72
2022/03/05 08:09:53;;;;;;;22.45;13.30;;;;;;;14.34;34.00;101023.00;5010744;28;20038;-73
2022/03/05 08:12:19;;;;;;;32.75;14.02;;;;;;;15.49;33.08;101030.78;4995226;28;20025;-73
2022/03/05 08:14:45;;;;;;;22.10;12.90;;;;;;;15.42;32.60;101040.56;4996753;28;20104;-73
2022/03/05 08:17:12;;;;;;;24.23;13.40;;;;;;;14.06;34.44;101039.53;5014522;28;20401;-75
2022/03/05 08:19:38;;;;;;;23.20;14.27;;;;;;;12.87;36.01;101049.72;5003849;28;20025;-73
2022/03/05 08:22:08;;;;;;;25.45;14.75;;;;;;;12.25;37.51;101052.00;4999140;28;20026;-74
2022/03/05 08:24:34;;;;;;;27.35;15.85;;;;;;;11.97;38.57;101054.00;4995045;28;20578;-73
2022/03/05 08:27:00;;;;;;;27.30;17.58;;;;;;;11.53;39.00;101051.25;4994792;28;20061;-73
2022/03/05 08:29:25;;;;;;;33.13;18.67;;;;;;;10.88;40.57;101064.75;5002373;28;20026;-75
2022/03/05 08:31:51;;;;;;;27.75;19.08;;;;;;;10.30;41.40;101070.88;5014235;28;20092;-74
2022/03/05 08:34:16;;;;;;;37.97;18.92;;;;;;;9.79;42.38;101075.75;5005992;28;20014;-74
2022/03/05 08:36:42;;;;;;;35.22;19.10;;;;;;;9.22;43.77;101073.88;4977897;28;20021;-73
2022/03/05 08:39:08;;;;;;;31.60;17.55;;;;;;;8.78;45.35;101084.84;5012232;28;20033;-74
2022/03/05 08:41:34;;;;;;;28.27;15.60;;;;;;;9.21;45.39;101095.81;5012079;28;20549;-72
2022/03/05 08:43:59;;;;;;;28.00;15.85;;;;;;;10.08;43.23;101087.81;5012479;28;20025;-75
2022/03/05 08:46:25;;;;;;;24.02;15.48;;;;;;;10.57;41.80;101096.75;4979100;28;20112;-74
2022/03/05 08:48:52;;;;;;;28.13;16.10;;;;;;;10.31;41.40;101093.16;4995895;28;20025;-75
2022/03/05 08:51:20;;;;;;;24.27;15.25;;;;;;;9.75;42.17;101097.84;4996261;28;20438;-76
2022/03/05 08:53:45;;;;;;;28.50;16.52;;;;;;;9.24;43.60;101092.06;4997172;28;20030;-75
2022/03/05 08:56:14;;;;;;;28.13;15.95;;;;;;;8.95;44.37;101102.66;5014157;28;20068;-75
2022/03/05 08:58:40;;;;;;;26.70;15.38;;;;;;;8.56;44.77;101110.19;4996027;28;20025;-77
2022/03/05 09:01:07;;;;;;;28.02;16.05;;;;;;;8.21;45.46;101113.91;4995795;28;20030;-75
2022/03/05 09:03:32;;;;;;;29.10;16.40;;;;;;;7.75;46.15;101114.97;4995331;28;20060;-72
2022/03/05 09:05:59;;;;;;;27.20;17.38;;;;;;;7.44;46.84;101116.50;5012970;28;20061;-74
2022/03/05 09:08:26;;;;;;;30.25;15.65;;;;;;;6.99;47.84;101116.22;5013135;28;20826;-75
2022/03/05 09:10:53;;;;;;;30.80;19.20;;;;;;;6.78;49.27;101125.91;4979064;28;20487;-74
2022/03/05 09:13:20;;;;;;;37.65;20.42;;;;;;;6.64;49.33;101118.50;4995474;28;20464;-72
2022/03/05 09:15:46;;;;;;;40.28;22.75;;;;;;;6.43;50.30;101125.34;5012742;28;20109;-75
2022/03/05 09:18:13;;;;;;;45.45;25.67;;;;;;;6.36;50.82;101119.00;4995514;28;20034;-74
2022/03/05 09:20:46;;;;;;;47.72;28.90;;;;;;;6.21;50.71;101126.13;4994845;28;20134;-73
2022/03/05 09:23:13;;;;;;;44.60;23.48;;;;;;;6.04;50.76;101122.34;5008843;28;20057;-74
2022/03/05 09:25:40;;;;;;;41.08;22.60;;;;;;;5.84;51.64;101119.38;4999119;28;20069;-75
2022/03/05 09:28:06;;;;;;;34.53;16.27;;;;;;;5.87;51.81;101120.63;5016551;28;20377;-74
2022/03/05 09:30:32;;;;;;;24.42;14.50;;;;;;;5.67;53.03;101126.13;5016523;28;20053;-74
2022/03/05 09:32:57;;;;;;;26.20;15.32;;;;;;;5.57;53.01;101127.88;5016281;28;20443;-75
2022/03/05 09:35:33;;;;;;;26.30;14.95;;;;;;;5.45;53.96;101121.97;5000982;28;20022;-77
2022/03/05 09:37:59;;;;;;;25.45;14.68;;;;;;;5.46;54.04;101115.09;5018919;28;20037;-80
2022/03/05 09:40:25;;;;;;;27.02;14.68;;;;;;;5.40;54.33;101100.66;4999434;28;20022;-76
2022/03/05 09:42:51;;;;;;;24.27;14.23;;;;;;;5.64;54.18;101107.97;5016041;28;20033;-75
2022/03/05 09:45:18;;;;;;;27.92;14.35;;;;;;;5.79;53.67;101102.09;5016564;28;20044;-79
2022/03/05 09:47:44;;;;;;;21.25;13.95;;;;;;;5.81;52.75;101110.97;5017032;28;20026;-78
2022/03/05 09:50:11;;;;;;;26.58;15.73;;;;;;;5.80;52.65;101112.19;5015161;28;20072;-74
2022/03/05 09:52:36;;;;;;;29.88;16.45;;;;;;;5.70;53.34;101107.50;5001930;28;20025;-74
2022/03/05 09:55:17;;;;;;;22.33;15.05;;;;;;;5.61;54.10;101117.31;5033668;28;20562;-74
2022/03/05 09:57:42;;;;;;;33.15;15.63;;;;;;;5.52;54.30;101117.03;5035596;28;20402;-74
2022/03/05 10:00:09;;;;;;;28.23;15.80;;;;;;;5.40;54.35;101113.97;5035573;28;20075;-76
2022/03/05 10:02:35;;;;;;;30.48;16.40;;;;;;;5.43;53.80;101121.59;5018458;28;20021;-77
2022/03/05 10:05:24;;;;;;;27.88;16.67;;;;;;;5.24;54.42;101114.56;5023815;28;20133;-77
2022/03/05 10:08:13;;;;;;;30.92;17.85;;;;;;;5.14;55.81;101113.47;4999002;28;20391;-76
2022/03/05 10:10:54;;;;;;;31.60;18.52;;;;;;;5.08;55.51;101114.38;4975445;28;20054;-77
2022/03/05 10:13:33;;;;;;;30.15;18.85;;;;;;;4.99;55.26;101117.69;4991781;28;20031;-75
2022/03/05 10:16:03;;;;;;;28.02;17.20;;;;;;;4.98;56.10;101121.72;4976480;28;20103;-77
2022/03/05 10:18:37;;;;;;;32.00;19.58;;;;;;;5.01;55.44;101123.72;4991391;28;20113;-73
2022/03/05 10:21:09;;;;;;;30.63;18.10;;;;;;;5.00;55.94;101121.31;4975420;28;20369;-70
2022/03/05 10:23:39;;;;;;;;;;;;;;;5.00;56.46;101124.94;4974271;28;20493;-70
2022/03/05 10:26:07;;;;;;;26.15;16.27;;;;;;;4.90;56.02;101122.25;4977772;28;19910;-69
2022/03/05 10:28:34;;;;;;;30.27;18.58;;;;;;;4.89;56.26;101124.25;4991175;28;20030;-69
2022/03/05 10:31:07;;;;;;;29.10;17.58;;;;;;;4.82;56.44;101121.53;4950652;28;20034;-69
2022/03/05 10:33:33;;;;;;;32.45;17.42;;;;;;;4.83;55.74;101128.78;4957014;28;20027;-73
2022/03/05 10:36:02;;;;;;;38.75;20.13;;;;;;;4.79;55.92;101125.97;4975496;28;20110;-69
2022/03/05 10:38:54;;;;;;;32.13;18.17;;;;;;;4.80;56.31;101121.13;4974699;28;20121;-71
2022/03/05 10:41:41;;;;;;;38.00;20.63;;;;;;;4.84;57.12;101124.72;4964788;28;20047;-69
2022/03/05 10:44:08;;;;;;;36.78;17.90;;;;;;;4.86;56.81;101116.66;4974976;28;20058;-69
2022/03/05 10:46:40;;;;;;;31.70;18.20;;;;;;;4.84;56.09;101116.25;4976064;28;20081;-70
2022/03/05 10:49:15;;;;;;;34.00;20.35;;;;;;;4.91;56.30;101123.84;4975318;28;20031;-70
2022/03/05 10:52:00;;;;;;;34.75;20.23;;;;;;;4.88;56.14;101121.88;4976388;28;20413;-69
2022/03/05 10:54:31;;;;;;;34.15;18.98;;;;;;;4.91;56.78;101119.00;4975592;28;20034;-71
2022/03/05 10:57:23;;;;;;;30.17;17.08;;;;;;;5.10;56.63;101117.56;4958430;28;20031;-72
2022/03/05 11:00:02;;;;;;;;;;;;;;;5.23;55.40;101113.75;4974720;28;20026;-70
2022/03/05 11:02:28;;;;;;;29.75;17.02;;;;;;;5.35;56.11;101111.63;4974492;28;19925;-73
2022/03/05 11:04:54;;;;;;;31.23;17.75;;;;;;;5.50;55.56;101116.66;4974530;28;20035;-71
2022/03/05 11:07:20;;;;;;;28.38;17.00;;;;;;;5.68;54.94;101101.47;4975560;28;20042;-73
2022/03/05 11:09:50;;;;;;;28.98;17.10;;;;;;;5.93;54.42;101107.56;4971671;28;20060;-71
2022/03/05 11:12:18;;;;;;;30.13;16.10;;;;;;;6.15;54.64;101105.22;4992565;28;20100;-73
2022/03/05 11:14:53;;;;;;;23.52;14.68;;;;;;;6.50;53.50;101096.91;4994518;28;20379;-74
2022/03/05 11:17:20;;;;;;;24.35;14.70;;;;;;;6.91;52.41;101096.53;4978285;28;20468;-72
2022/03/05 11:19:47;;;;;;;32.17;16.00;;;;;;;7.16;51.79;101090.34;4995224;28;20156;-73
2022/03/05 11:22:14;;;;;;;25.25;14.82;;;;;;;7.30;51.00;101095.72;4993828;28;20030;-72